SANT/TUC METAR and TAF weather

Enter ICAO airport designator
Station Type Date Time Source
SANT METAR 2018/12/15 20:00 UTC NOAA

SANT 152000Z 18004KT 8000 BKN020 21/18 Q1015


Station Type Date Time Source
SANT Decoded METAR 2018/12/15 20:00 UTC NOAA

Tucuman Aerodrome, Argentina (SANT) 26-51S 065-06W 450M
Dec 15, 2018 - 03:00 PM EST / 2018.12.15 2000 UTC
Wind: from the S (180 degrees) at 5 MPH (4 KT):0
Visibility: 4 mile(s):0
Sky conditions: mostly cloudy
Temperature: 69 F (21 C)
Dew Point: 64 F (18 C)
Relative Humidity: 82%
Pressure (altimeter): 29.97 in. Hg (1015 hPa)
ob: SANT 152000Z 18004KT 8000 BKN020 21/18 Q1015
cycle: 20

Station Type Date Time Source
SANT TAF 2018/12/15 18:12 UTC NOAA

TAF TAF SANT 151700Z 1518/1618 23010KT 8000 DZ BKN008 OVC030 TX26/1618Z TN19/1610Z
TEMPO 1519/1521 18010KT 9999 SCT010 BKN025
BECMG 1602/1605 14005KT 4000 DZ OVC010


Example: see airport list